createdAt,value
2023-05-05T00:02:26.226Z,79.52
2023-05-05T00:04:55.613Z,79.65
2023-05-05T00:07:24.983Z,80.46
2023-05-05T00:09:53.956Z,81.19
2023-05-05T00:12:23.133Z,81.22
2023-05-05T00:14:52.975Z,80.88
2023-05-05T00:17:23.691Z,80.69
2023-05-05T00:19:53.103Z,79.50
2023-05-05T00:22:21.998Z,80.23
2023-05-05T00:24:51.987Z,80.69
2023-05-05T00:27:21.142Z,80.59
2023-05-05T00:29:49.967Z,80.17
2023-05-05T00:32:23.082Z,80.75
2023-05-05T00:34:53.760Z,80.26
2023-05-05T00:37:23.201Z,81.88
2023-05-05T00:39:52.208Z,81.13
2023-05-05T00:42:22.113Z,80.98
2023-05-05T00:44:51.749Z,81.45
2023-05-05T00:47:21.788Z,81.31
2023-05-05T00:49:51.250Z,81.78
2023-05-05T00:52:20.749Z,81.41
2023-05-05T00:54:49.675Z,81.00
2023-05-05T00:57:20.834Z,80.49
2023-05-05T00:59:50.671Z,80.52
2023-05-05T01:02:21.280Z,80.75
2023-05-05T01:04:50.857Z,80.45
2023-05-05T01:07:39.879Z,81.00
2023-05-05T01:10:47.295Z,81.43
2023-05-05T01:13:43.785Z,80.79
2023-05-05T01:16:26.259Z,81.83
2023-05-05T01:19:06.195Z,81.14
2023-05-05T01:21:52.067Z,81.17
2023-05-05T01:24:41.457Z,80.97
2023-05-05T01:27:31.585Z,80.53
2023-05-05T01:30:57.550Z,80.68
2023-05-05T01:33:36.326Z,81.48
2023-05-05T01:36:23.777Z,81.15
2023-05-05T01:38:59.670Z,81.64
2023-05-05T01:41:41.452Z,81.27
2023-05-05T01:44:14.133Z,80.65
2023-05-05T01:46:55.102Z,82.06
2023-05-05T01:49:27.063Z,82.22
2023-05-05T01:51:58.120Z,81.80
2023-05-05T01:54:29.251Z,81.88
2023-05-05T01:57:00.588Z,81.47
2023-05-05T01:59:30.800Z,81.78
2023-05-05T02:02:03.709Z,81.72
2023-05-05T02:04:36.012Z,81.57
2023-05-05T02:07:08.362Z,81.81
2023-05-05T02:09:39.170Z,81.51
2023-05-05T02:12:10.791Z,82.59
2023-05-05T02:14:47.253Z,81.92
2023-05-05T02:17:17.645Z,81.72
2023-05-05T02:19:50.548Z,81.60
2023-05-05T02:22:20.693Z,81.66
2023-05-05T02:24:49.822Z,81.74
2023-05-05T02:27:24.948Z,82.03
2023-05-05T02:29:59.769Z,81.58
2023-05-05T02:32:35.612Z,81.58
2023-05-05T02:35:16.364Z,81.94
2023-05-05T02:37:52.042Z,81.83
2023-05-05T02:40:26.755Z,81.45
2023-05-05T02:43:00.255Z,81.50
2023-05-05T02:45:34.321Z,81.82
2023-05-05T02:48:05.001Z,82.52
2023-05-05T02:50:38.514Z,82.40
2023-05-05T02:53:19.501Z,83.03
2023-05-05T02:56:03.567Z,81.67
2023-05-05T02:58:57.930Z,80.68
2023-05-05T03:01:33.897Z,81.65
2023-05-05T03:04:16.893Z,81.11
2023-05-05T03:06:59.911Z,81.46
2023-05-05T03:10:06.014Z,82.25
2023-05-05T03:13:06.490Z,82.55
2023-05-05T03:15:52.986Z,83.42
2023-05-05T03:18:28.047Z,83.96
2023-05-05T03:21:11.363Z,83.76
2023-05-05T03:23:42.252Z,83.47
2023-05-05T03:26:19.365Z,83.09
2023-05-05T03:28:48.872Z,83.23
2023-05-05T03:31:29.037Z,83.28
2023-05-05T03:34:01.351Z,83.34
2023-05-05T03:36:36.318Z,82.48
2023-05-05T03:39:06.963Z,82.36
2023-05-05T03:41:36.879Z,82.03
2023-05-05T03:44:06.954Z,82.07
2023-05-05T03:46:37.561Z,81.86
2023-05-05T03:49:11.705Z,82.06
2023-05-05T03:51:42.128Z,82.00
2023-05-05T03:54:12.679Z,82.24
2023-05-05T03:56:44.164Z,82.31
2023-05-05T03:59:15.450Z,83.37
2023-05-05T04:01:47.451Z,82.05
2023-05-05T04:04:17.968Z,82.64
2023-05-05T04:06:47.862Z,82.21
2023-05-05T04:09:18.346Z,81.58
2023-05-05T04:11:48.560Z,81.95
2023-05-05T04:14:19.000Z,82.25
2023-05-05T04:16:49.489Z,83.26
2023-05-05T04:19:19.860Z,82.81
2023-05-05T04:21:51.174Z,82.16
2023-05-05T04:24:25.531Z,82.50
2023-05-05T04:26:57.367Z,83.67
2023-05-05T04:29:27.035Z,82.84
2023-05-05T04:31:57.340Z,82.57
2023-05-05T04:34:30.932Z,83.03
2023-05-05T04:37:00.288Z,83.91
2023-05-05T04:39:30.215Z,83.68
2023-05-05T04:41:59.730Z,83.08
2023-05-05T04:44:29.927Z,82.74
2023-05-05T04:47:03.297Z,82.70
2023-05-05T04:49:32.986Z,82.38
2023-05-05T04:52:02.675Z,83.02
2023-05-05T04:54:37.398Z,83.16
2023-05-05T04:57:06.608Z,83.37
2023-05-05T04:59:37.034Z,82.89
2023-05-05T05:02:06.899Z,82.26
2023-05-05T05:04:36.774Z,82.11
2023-05-05T05:07:07.033Z,82.47
2023-05-05T05:09:38.142Z,82.05
2023-05-05T05:12:09.912Z,81.07
2023-05-05T05:14:40.415Z,80.23
2023-05-05T05:17:10.498Z,79.63
2023-05-05T05:19:39.772Z,78.99
2023-05-05T05:22:09.871Z,78.30
2023-05-05T05:24:40.953Z,77.65
2023-05-05T05:27:12.984Z,76.01
2023-05-05T05:29:46.399Z,75.57
2023-05-05T05:32:16.605Z,75.03
2023-05-05T05:34:46.563Z,75.09
2023-05-05T05:37:17.737Z,75.15
2023-05-05T05:39:54.778Z,74.46
2023-05-05T05:42:24.785Z,74.26
2023-05-05T05:44:55.305Z,74.15
2023-05-05T05:47:25.208Z,73.77
2023-05-05T05:49:54.461Z,74.08
2023-05-05T05:52:23.937Z,73.87
2023-05-05T05:54:56.745Z,73.86
2023-05-05T05:57:26.434Z,73.72
2023-05-05T05:59:57.025Z,73.40
2023-05-05T06:02:28.617Z,72.88
2023-05-05T06:04:58.060Z,72.93
2023-05-05T06:07:28.451Z,73.27
2023-05-05T06:09:57.662Z,73.10
2023-05-05T06:12:27.836Z,72.98
2023-05-05T06:14:57.101Z,72.47
2023-05-05T06:17:27.133Z,71.63
2023-05-05T06:19:57.571Z,71.68
2023-05-05T06:22:28.634Z,71.14
2023-05-05T06:24:57.612Z,70.54
2023-05-05T06:27:30.383Z,69.41
2023-05-05T06:30:00.211Z,69.06
2023-05-05T06:32:29.810Z,68.17
2023-05-05T06:35:02.919Z,66.93
2023-05-05T06:37:32.267Z,67.85
2023-05-05T06:40:02.292Z,67.13
2023-05-05T06:42:32.701Z,66.86
2023-05-05T06:45:01.884Z,66.64
2023-05-05T06:47:31.471Z,66.47
2023-05-05T06:50:00.959Z,66.18
2023-05-05T06:52:31.430Z,65.10
2023-05-05T06:55:01.530Z,65.02
2023-05-05T06:57:30.605Z,64.53
2023-05-05T07:00:00.763Z,64.85
2023-05-05T07:02:32.226Z,64.13
2023-05-05T07:05:03.573Z,63.27
2023-05-05T07:07:32.923Z,63.62
2023-05-05T07:10:02.663Z,62.42
2023-05-05T07:12:32.167Z,61.53
2023-05-05T07:15:12.140Z,61.63
2023-05-05T07:17:49.837Z,61.05
2023-05-05T07:20:19.511Z,60.66
2023-05-05T07:22:50.035Z,60.71
2023-05-05T07:25:20.258Z,60.53
2023-05-05T07:27:49.785Z,59.69
2023-05-05T07:30:19.311Z,58.20
2023-05-05T07:32:50.072Z,58.10
2023-05-05T07:35:19.547Z,58.09
2023-05-05T07:37:49.783Z,57.57
2023-05-05T07:40:19.938Z,56.86
2023-05-05T07:42:52.272Z,56.78
2023-05-05T07:45:21.886Z,55.47
2023-05-05T07:47:51.900Z,54.08
2023-05-05T07:50:21.379Z,53.08
2023-05-05T07:52:59.317Z,52.67
2023-05-05T07:55:43.081Z,51.68
2023-05-05T07:58:13.116Z,50.44
2023-05-05T08:00:46.228Z,49.20
2023-05-05T08:03:16.172Z,49.47
2023-05-05T08:05:49.920Z,48.87
2023-05-05T08:08:25.230Z,48.13
2023-05-05T08:10:54.732Z,48.05
2023-05-05T08:13:23.664Z,47.24
2023-05-05T08:15:54.263Z,47.05
2023-05-05T08:18:24.975Z,45.62
2023-05-05T08:20:54.999Z,45.90
2023-05-05T08:23:25.035Z,45.50
2023-05-05T08:25:54.420Z,45.76
2023-05-05T08:28:23.859Z,45.46
2023-05-05T08:30:53.236Z,44.01
2023-05-05T08:33:22.367Z,44.56
2023-05-05T08:35:54.188Z,45.25
2023-05-05T08:38:24.534Z,44.49
2023-05-05T08:40:54.999Z,43.95
2023-05-05T08:43:26.814Z,43.31
2023-05-05T08:45:57.332Z,43.32
2023-05-05T08:48:30.204Z,42.96
2023-05-05T08:51:01.891Z,42.60
2023-05-05T08:53:59.273Z,41.55
2023-05-05T08:56:34.569Z,41.77
2023-05-05T08:59:05.873Z,41.78
2023-05-05T09:01:36.746Z,41.12
2023-05-05T09:04:09.507Z,40.74
2023-05-05T09:06:39.017Z,40.63
2023-05-05T09:09:09.675Z,41.18
2023-05-05T09:11:42.922Z,40.90
2023-05-05T09:14:13.509Z,40.78
2023-05-05T09:16:44.440Z,39.96
2023-05-05T09:19:15.118Z,39.37
2023-05-05T09:21:49.991Z,39.23
2023-05-05T09:24:19.263Z,39.66
2023-05-05T09:26:48.651Z,39.75
2023-05-05T09:29:23.376Z,39.17
2023-05-05T09:32:09.164Z,38.11
2023-05-05T09:34:38.544Z,38.71
2023-05-05T09:37:07.953Z,38.51
2023-05-05T09:39:54.828Z,37.58
2023-05-05T09:42:23.854Z,36.96
2023-05-05T09:44:54.458Z,36.19
2023-05-05T09:47:38.064Z,35.59
2023-05-05T09:50:07.948Z,34.95
2023-05-05T09:52:37.607Z,34.92
2023-05-05T09:55:08.582Z,34.60
2023-05-05T09:57:37.927Z,34.43
2023-05-05T10:00:10.274Z,33.92
2023-05-05T10:02:40.532Z,33.51
2023-05-05T10:05:15.671Z,33.64
2023-05-05T10:07:48.011Z,32.79
2023-05-05T10:10:18.727Z,32.73
2023-05-05T10:12:50.094Z,32.75
2023-05-05T10:15:23.341Z,32.49
2023-05-05T10:18:06.634Z,32.37
2023-05-05T10:20:42.331Z,31.89
2023-05-05T10:23:20.396Z,32.12
2023-05-05T10:26:03.837Z,32.06
2023-05-05T10:28:38.543Z,31.37
2023-05-05T10:31:25.147Z,31.56
2023-05-05T10:34:11.235Z,31.16
2023-05-05T10:36:46.196Z,30.69
2023-05-05T10:39:20.558Z,30.06
2023-05-05T10:41:52.268Z,30.08
2023-05-05T10:44:23.198Z,29.89
2023-05-05T10:46:53.326Z,29.44
2023-05-05T10:49:42.041Z,30.03
2023-05-05T10:52:56.999Z,29.53
2023-05-05T10:55:36.703Z,29.42
2023-05-05T10:58:07.180Z,28.75
2023-05-05T11:00:40.124Z,28.65
2023-05-05T11:03:30.648Z,28.26
2023-05-05T11:06:08.336Z,29.22
2023-05-05T11:08:42.083Z,28.90
2023-05-05T11:11:14.083Z,29.14
2023-05-05T11:13:43.429Z,29.70
2023-05-05T11:16:44.845Z,29.99
2023-05-05T11:19:44.549Z,30.67
2023-05-05T11:22:13.576Z,31.01
2023-05-05T11:24:42.859Z,30.80
2023-05-05T11:27:12.346Z,30.24
2023-05-05T11:30:08.823Z,29.35
2023-05-05T11:32:38.105Z,28.73
2023-05-05T11:35:09.133Z,28.20
2023-05-05T11:37:38.740Z,28.01
2023-05-05T11:40:14.931Z,27.46
2023-05-05T11:42:44.658Z,26.59
2023-05-05T11:45:25.606Z,26.32
2023-05-05T11:48:31.237Z,26.58
2023-05-05T11:51:04.190Z,26.24
2023-05-05T11:53:34.653Z,25.81
2023-05-05T11:56:10.995Z,25.79
2023-05-05T11:58:42.374Z,24.89
2023-05-05T12:01:13.731Z,25.09
2023-05-05T12:03:43.868Z,24.85
2023-05-05T12:06:16.301Z,25.00
2023-05-05T12:08:45.409Z,25.25
2023-05-05T12:11:14.403Z,25.04
2023-05-05T12:13:46.984Z,24.51
2023-05-05T12:16:16.860Z,24.81
2023-05-05T12:18:47.328Z,23.90
2023-05-05T12:21:21.468Z,24.60
2023-05-05T12:23:53.233Z,24.50
2023-05-05T12:26:31.844Z,24.22
2023-05-05T12:29:01.428Z,24.75
2023-05-05T12:31:37.774Z,24.68
2023-05-05T12:34:12.116Z,23.95
2023-05-05T12:36:42.629Z,23.56
2023-05-05T12:39:39.597Z,23.20
2023-05-05T12:42:08.863Z,22.78
2023-05-05T12:44:39.220Z,22.88
2023-05-05T12:47:09.231Z,22.72
2023-05-05T12:49:52.864Z,22.86
2023-05-05T12:52:22.828Z,23.57
2023-05-05T12:55:01.271Z,23.84
2023-05-05T12:57:30.719Z,23.55
2023-05-05T13:00:15.556Z,23.60
2023-05-05T13:02:46.221Z,23.51
2023-05-05T13:05:16.017Z,23.20
2023-05-05T13:07:52.468Z,23.31
2023-05-05T13:10:22.306Z,23.00
2023-05-05T13:12:57.204Z,23.13
2023-05-05T13:15:28.244Z,23.55
2023-05-05T13:18:03.258Z,23.24
2023-05-05T13:20:32.508Z,23.55
2023-05-05T13:23:02.225Z,23.61
2023-05-05T13:25:32.437Z,23.05
2023-05-05T13:28:04.503Z,22.55
2023-05-05T13:30:34.953Z,22.50
2023-05-05T13:33:04.988Z,22.52
2023-05-05T13:35:35.013Z,21.95
2023-05-05T13:38:04.176Z,21.61
2023-05-05T13:40:35.131Z,21.66
2023-05-05T13:43:04.936Z,22.13
2023-05-05T13:45:35.163Z,21.67
2023-05-05T13:48:07.373Z,21.60
2023-05-05T13:50:37.348Z,21.98
2023-05-05T13:53:07.877Z,21.95
2023-05-05T13:55:38.604Z,21.58
2023-05-05T13:58:13.272Z,21.72
2023-05-05T14:00:42.737Z,21.59
2023-05-05T14:03:12.136Z,21.68
2023-05-05T14:05:43.138Z,21.76
2023-05-05T14:08:15.449Z,22.14
2023-05-05T14:10:47.376Z,22.41
2023-05-05T14:13:20.112Z,22.54
2023-05-05T14:15:53.371Z,22.15
2023-05-05T14:18:23.093Z,22.01
2023-05-05T14:20:54.981Z,21.66
2023-05-05T14:23:24.772Z,21.83
2023-05-05T14:25:58.259Z,21.91
2023-05-05T14:28:27.993Z,22.33
2023-05-05T14:30:57.801Z,22.77
2023-05-05T14:33:28.217Z,22.68
2023-05-05T14:35:58.147Z,22.55
2023-05-05T14:38:31.089Z,22.35
2023-05-05T14:41:00.860Z,21.84
2023-05-05T14:43:30.412Z,21.59
2023-05-05T14:46:02.667Z,21.61
2023-05-05T14:48:34.046Z,21.52
2023-05-05T14:51:03.171Z,21.37
2023-05-05T14:53:32.364Z,21.36
2023-05-05T14:56:02.849Z,21.33
2023-05-05T14:58:33.012Z,21.40
2023-05-05T15:01:02.918Z,21.27
2023-05-05T15:03:35.708Z,20.87
2023-05-05T15:06:08.169Z,20.48
2023-05-05T15:08:39.442Z,21.13
2023-05-05T15:11:09.239Z,21.29
2023-05-05T15:13:40.933Z,21.57
2023-05-05T15:16:11.160Z,21.07
2023-05-05T15:18:41.342Z,21.80
2023-05-05T15:21:10.837Z,21.90
2023-05-05T15:23:40.250Z,21.56
2023-05-05T15:26:10.064Z,22.20
2023-05-05T15:28:42.044Z,22.31
2023-05-05T15:31:11.560Z,22.28
2023-05-05T15:33:41.240Z,22.07
2023-05-05T15:36:11.160Z,21.99
2023-05-05T15:38:45.328Z,22.07
2023-05-05T15:41:15.184Z,21.94
2023-05-05T15:43:47.841Z,22.15
2023-05-05T15:46:16.990Z,22.15
2023-05-05T15:48:46.780Z,21.92
2023-05-05T15:51:16.769Z,22.17
2023-05-05T15:53:47.034Z,22.26
2023-05-05T15:56:16.733Z,22.13
2023-05-05T15:58:46.583Z,22.02
2023-05-05T16:01:17.009Z,22.73
2023-05-05T16:03:46.398Z,23.00
2023-05-05T16:06:15.882Z,23.20
2023-05-05T16:08:48.257Z,23.68
2023-05-05T16:11:18.453Z,24.05
2023-05-05T16:13:49.110Z,24.13
2023-05-05T16:16:19.511Z,24.34
2023-05-05T16:18:49.214Z,24.59
2023-05-05T16:21:19.052Z,24.70
2023-05-05T16:23:49.595Z,24.78
2023-05-05T16:26:19.197Z,24.97
2023-05-05T16:28:49.010Z,25.44
2023-05-05T16:31:18.099Z,25.52
2023-05-05T16:33:47.919Z,25.22
2023-05-05T16:36:18.146Z,25.89
2023-05-05T16:38:50.135Z,26.24
2023-05-05T16:41:19.739Z,26.30
2023-05-05T16:43:50.438Z,27.19
2023-05-05T16:46:20.004Z,28.07
2023-05-05T16:48:49.461Z,28.62
2023-05-05T16:51:18.758Z,28.87
2023-05-05T16:53:49.149Z,29.26
2023-05-05T16:56:19.103Z,30.33
2023-05-05T16:58:49.021Z,29.80
2023-05-05T17:01:18.996Z,30.79
2023-05-05T17:03:49.917Z,31.01
2023-05-05T17:06:19.693Z,32.50
2023-05-05T17:08:51.192Z,33.21
2023-05-05T17:11:20.540Z,33.14
2023-05-05T17:13:50.553Z,33.67
2023-05-05T17:16:20.323Z,33.17
2023-05-05T17:18:49.782Z,34.14
2023-05-05T17:21:19.281Z,35.21
2023-05-05T17:23:49.470Z,35.83
2023-05-05T17:26:19.643Z,35.67
2023-05-05T17:28:50.252Z,36.42
2023-05-05T17:31:19.711Z,38.27
2023-05-05T17:33:49.768Z,38.20
2023-05-05T17:36:19.584Z,37.52
2023-05-05T17:38:48.585Z,38.18
2023-05-05T17:41:18.406Z,38.85
2023-05-05T17:43:49.233Z,39.03
2023-05-05T17:46:19.586Z,40.10
2023-05-05T17:48:49.282Z,39.82
2023-05-05T17:51:20.412Z,39.71
2023-05-05T17:53:49.912Z,40.23
2023-05-05T17:56:19.231Z,40.24
2023-05-05T17:58:50.952Z,40.80
2023-05-05T18:01:25.703Z,41.30
2023-05-05T18:03:56.042Z,41.42
2023-05-05T18:06:27.304Z,42.00
2023-05-05T18:08:57.929Z,41.66
2023-05-05T18:11:34.361Z,42.40
2023-05-05T18:14:04.349Z,43.44
2023-05-05T18:16:33.811Z,42.69
2023-05-05T18:19:04.206Z,42.68
2023-05-05T18:21:34.057Z,43.21
2023-05-05T18:24:15.813Z,43.64
2023-05-05T18:26:53.140Z,44.60
2023-05-05T18:29:23.549Z,44.43
2023-05-05T18:31:55.057Z,44.67
2023-05-05T18:34:25.376Z,44.73
2023-05-05T18:36:54.834Z,44.89
2023-05-05T18:39:27.289Z,46.35
2023-05-05T18:41:56.211Z,46.80
2023-05-05T18:44:25.301Z,46.60
2023-05-05T18:46:57.420Z,46.23
2023-05-05T18:49:29.568Z,47.38
2023-05-05T18:52:01.904Z,49.90
2023-05-05T18:54:31.216Z,49.62
2023-05-05T18:57:01.495Z,48.61
2023-05-05T18:59:31.819Z,49.04
2023-05-05T19:02:01.559Z,48.82
2023-05-05T19:04:32.617Z,49.69
2023-05-05T19:07:05.336Z,50.70
2023-05-05T19:09:35.397Z,50.41
2023-05-05T19:12:05.916Z,49.02
2023-05-05T19:14:41.313Z,49.29
2023-05-05T19:17:10.992Z,49.85
2023-05-05T19:19:41.931Z,49.74
2023-05-05T19:22:11.648Z,50.21
2023-05-05T19:24:42.276Z,50.38
2023-05-05T19:27:16.440Z,51.10
2023-05-05T19:29:53.452Z,50.72
2023-05-05T19:32:22.744Z,50.96
2023-05-05T19:34:57.232Z,52.26
2023-05-05T19:37:26.897Z,51.12
2023-05-05T19:39:56.796Z,51.97
2023-05-05T19:42:27.143Z,51.82
2023-05-05T19:44:58.654Z,52.91
2023-05-05T19:47:29.970Z,53.12
2023-05-05T19:50:00.962Z,52.42
2023-05-05T19:52:30.580Z,53.46
2023-05-05T19:55:00.922Z,54.06
2023-05-05T19:57:32.462Z,54.34
2023-05-05T20:00:02.493Z,55.15
2023-05-05T20:02:36.785Z,53.89
2023-05-05T20:05:09.453Z,55.23
2023-05-05T20:07:38.743Z,56.97
2023-05-05T20:10:09.753Z,56.52
2023-05-05T20:12:42.548Z,56.22
2023-05-05T20:15:12.361Z,57.84
2023-05-05T20:17:42.703Z,57.50
2023-05-05T20:20:15.819Z,55.60
2023-05-05T20:22:47.514Z,56.16
2023-05-05T20:25:18.094Z,57.15
2023-05-05T20:27:47.689Z,57.16
2023-05-05T20:30:17.467Z,57.38
2023-05-05T20:32:48.615Z,58.01
2023-05-05T20:35:18.202Z,57.64
2023-05-05T20:37:47.288Z,56.76
2023-05-05T20:40:19.247Z,58.08
2023-05-05T20:42:49.430Z,58.96
2023-05-05T20:45:19.368Z,57.96
2023-05-05T20:47:51.194Z,59.05
2023-05-05T20:50:21.689Z,60.81
2023-05-05T20:52:52.058Z,59.96
2023-05-05T20:55:23.005Z,60.70
2023-05-05T20:57:52.570Z,59.43
2023-05-05T21:00:22.470Z,62.55
2023-05-05T21:02:52.624Z,61.58
2023-05-05T21:05:23.443Z,62.83
2023-05-05T21:07:54.974Z,61.92
2023-05-05T21:10:24.452Z,61.98
2023-05-05T21:12:58.323Z,62.16
2023-05-05T21:15:28.395Z,61.53
2023-05-05T21:17:57.891Z,61.70
2023-05-05T21:20:29.262Z,61.23
2023-05-05T21:22:58.464Z,63.46
2023-05-05T21:25:27.349Z,63.33
2023-05-05T21:27:56.817Z,63.31
2023-05-05T21:30:27.435Z,63.42
2023-05-05T21:32:59.109Z,63.03
2023-05-05T21:35:28.765Z,63.78
2023-05-05T21:38:03.683Z,63.24
2023-05-05T21:40:32.524Z,63.50
2023-05-05T21:43:02.510Z,62.38
2023-05-05T21:45:31.587Z,63.33
2023-05-05T21:48:01.255Z,63.84
2023-05-05T21:50:30.571Z,63.69
2023-05-05T21:53:00.542Z,63.73
2023-05-05T21:55:30.685Z,64.95
2023-05-05T21:58:00.684Z,65.24
2023-05-05T22:00:31.351Z,65.77
2023-05-05T22:03:01.464Z,65.74
2023-05-05T22:05:33.268Z,64.95
2023-05-05T22:08:02.486Z,63.41
2023-05-05T22:10:31.990Z,65.06
2023-05-05T22:13:01.730Z,65.23
2023-05-05T22:15:39.097Z,65.68
2023-05-05T22:18:17.500Z,66.82
2023-05-05T22:20:47.133Z,66.51
2023-05-05T22:23:17.017Z,66.16
2023-05-05T22:25:48.067Z,67.04
2023-05-05T22:28:17.251Z,66.63
2023-05-05T22:30:46.824Z,66.55
2023-05-05T22:33:16.808Z,66.06
2023-05-05T22:35:46.793Z,67.23
2023-05-05T22:38:16.266Z,67.09
2023-05-05T22:40:49.358Z,67.87
2023-05-05T22:43:19.478Z,67.18
2023-05-05T22:45:50.372Z,67.47
2023-05-05T22:48:20.163Z,67.00
2023-05-05T22:50:50.054Z,67.40
2023-05-05T22:53:20.164Z,67.45
2023-05-05T22:55:52.152Z,67.50
2023-05-05T22:58:21.447Z,67.43
2023-05-05T23:00:54.999Z,67.45
2023-05-05T23:03:27.445Z,67.32
2023-05-05T23:05:57.087Z,66.75
2023-05-05T23:08:26.575Z,68.00
2023-05-05T23:10:57.298Z,67.56
2023-05-05T23:13:26.960Z,68.74
2023-05-05T23:15:57.532Z,69.88
2023-05-05T23:18:30.274Z,68.81
2023-05-05T23:21:00.651Z,69.62
2023-05-05T23:23:31.602Z,70.24
2023-05-05T23:26:01.102Z,70.05
2023-05-05T23:28:32.153Z,70.51
2023-05-05T23:31:02.231Z,71.50
2023-05-05T23:33:32.266Z,71.68
2023-05-05T23:36:01.655Z,71.80
2023-05-05T23:38:33.274Z,71.45
2023-05-05T23:41:03.276Z,71.49
2023-05-05T23:43:36.066Z,71.83
2023-05-05T23:46:06.861Z,72.45
2023-05-05T23:48:37.350Z,72.13
2023-05-05T23:51:06.552Z,71.60
2023-05-05T23:53:35.995Z,71.48
2023-05-05T23:56:06.384Z,72.78
2023-05-05T23:58:35.533Z,73.26
